MWCBSVMI

Guest
Details From MWCB - Cayman Brac Gerrard Smith Intl
To SVMI - Caracas Simon Bolivar Intl
Flight Number -
Tags Decoded
Created
Modified
Stats Distance 2,956 nm / 5,475 km
Max Altitude 0 ft / 0 m
Waypoints 3
Social Downloads 1
Likes 0
Share VATSIM

Download

Looking for another format? Having issues loading an existing format? Contact us
Advertisement - Login to hide

Notes

Decoded

Route

CBC W18 KORLI

ID Type Via Altitude Latitude Longitude Leg Dist Tot Dist Heading (true) Name
O CBC NDB - 0 ft / 0 m 19.68997˚ -79.85678˚ - 0 nm - CAYMAN BRAC NDB
W18 APT - 0 ft / 0 m 39.07406˚ -76.82888˚ 1174 nm 1174 nm 7° / 9° -
O KORLI FIX - 0 ft / 0 m 10.79475˚ -66.77203˚ 1781 nm 2956 nm 160° / 164° -

Altitude Profile

Advertisement - Login to hide

Weather


0- 5 10 15 20 25 30 35+ Temperature / ° C

Clouds and Precipitation
Forecast for 2017-12-12 00:00 UTC. Updated an hour ago

Ground ~20,000 ft ~40,000 ft Winds

MWCB

Details ICAO MWCB (CYB)
Name Cayman Brac Gerrard Smith Intl
Region Cayman Islands
Timezone Unknown (UTC+0.0)
Stats Elevation 7 ft / 2 m (AMSL)
Location 19.686981° -79.882789°
Runways 1
Magnetic Variation 5.950° W

METAR

MWCB 120000Z 03017KT 9999 SCT014 BKN030 24/18 Q1017

Decode

TAF

TAF TAF MWCB 120000Z 1118/1218 CNL

Decode

Departure Runways

ID Width Length Bearing (true) Bearing (mag) Surface Threshold Offset Overrun Length
09 148 ft / 45 m 5,965 ft / 1,818 m 84.73° 90.68° Asphalt 0 ft / 0 m 36 ft / 11 m
27 148 ft / 45 m 5,965 ft / 1,818 m 264.74° 270.69° Asphalt 0 ft / 0 m 26 ft / 8 m

SVMI

Details ICAO SVMI (CCS)
Name Caracas Simon Bolivar Intl
Region Venezuela
Timezone America/Caracas (UTC-4.0)
Stats Elevation 235 ft / 72 m (AMSL)
Location 10.603119° -66.990585°
Runways 2
Magnetic Variation 12.287° W

METAR

SVMI 120000Z 00000KT 9999 FEW016 27/18 Q1010

Decode

TAF

Not found

Destination Runways

ID Width Length Bearing (true) Bearing (mag) Surface Threshold Offset Overrun Length
09 145 ft / 44 m 9,825 ft / 2,995 m 75.92° 88.21° Asphalt 0 ft / 0 m 0 ft / 0 m
10 148 ft / 45 m 11,472 ft / 3,497 m 88.14° 100.43° Asphalt 0 ft / 0 m 200 ft / 61 m
27 145 ft / 44 m 9,825 ft / 2,995 m 255.92° 268.21° Asphalt 0 ft / 0 m 0 ft / 0 m
28 148 ft / 45 m 11,472 ft / 3,497 m 268.15° 280.44° Asphalt 0 ft / 0 m 200 ft / 61 m

Approach Navaids

Runway Type Ident Frequency Range Bearing (true) Bearing (mag) Slope Elevation
10 Localiser IMIQ 110.10 MHz 18 nm / 33 km 87.90° 100.19° - 235 ft / 72 m (AMSL)
10 Glidescope IMIQ 110.10 MHz 10 nm / 19 km 88.14° 100.43° 3.00° 235 ft / 72 m (AMSL)
10 DME IMIQ 110.10 MHz 18 nm / 33 km - - - 235 ft / 72 m (AMSL)

Popular Alternatives